Time;durP1;ratioP1;P1;durP2;ratioP2;P2;SDS_P1;SDS_P2;PMS_P1;PMS_P2;Temp;Humidity;BMP_temperature;BMP_pressure;BME280_temperature;BME280_humidity;BME280_pressure;Samples;Min_cycle;Max_cycle;Signal;HPM_P1;HPM_P2
2024/02/09 00:02:48;;;;;;;29.67;6.50;;;;;;;11.90;80.02;98012.28;10258716;28;20062;-62
2024/02/09 00:07:50;;;;;;;25.95;5.72;;;;;;;11.85;80.09;98011.38;10257013;28;20058;-62
2024/02/09 00:12:52;;;;;;;21.33;5.57;;;;;;;11.80;79.93;97995.94;10261773;28;20051;-63
2024/02/09 00:17:54;;;;;;;21.33;5.30;;;;;;;11.75;80.08;97990.47;10263514;28;20047;-62
2024/02/09 00:22:56;;;;;;;17.67;5.53;;;;;;;11.74;79.67;97986.13;10263062;28;20051;-62
2024/02/09 00:27:59;;;;;;;22.52;4.85;;;;;;;11.76;79.67;97978.63;10261948;28;20059;-63
2024/02/09 00:33:03;;;;;;;19.55;4.82;;;;;;;11.73;79.91;97984.50;10267078;28;20063;-62
2024/02/09 00:38:06;;;;;;;18.90;7.57;;;;;;;11.74;80.22;97971.88;10267622;28;20386;-62
2024/02/09 00:43:11;;;;;;;29.58;6.10;;;;;;;11.75;79.93;97965.41;10262213;28;20047;-62
2024/02/09 00:48:12;;;;;;;21.38;5.97;;;;;;;11.74;80.30;97955.72;10265246;28;20122;-62
2024/02/09 00:53:14;;;;;;;17.33;5.75;;;;;;;11.75;80.20;97944.72;10264816;28;20347;-61
2024/02/09 00:58:18;;;;;;;15.35;5.80;;;;;;;11.70;79.82;97952.69;10266122;28;20043;-61
2024/02/09 01:03:20;;;;;;;21.42;6.00;;;;;;;11.69;80.29;97954.56;10263009;28;20054;-61
2024/02/09 01:08:21;;;;;;;27.40;7.55;;;;;;;11.67;80.25;97950.47;10263363;28;20059;-61
2024/02/09 03:05:20;;;;;;;6.50;0.77;;;;;;;11.78;81.23;97830.38;10262939;28;20069;-59
2024/02/09 03:10:23;;;;;;;5.00;0.55;;;;;;;11.77;81.29;97823.34;10264554;28;20458;-59
2024/02/09 03:15:24;;;;;;;4.65;0.93;;;;;;;11.74;81.46;97823.84;10258083;28;20051;-60
2024/02/09 03:20:26;;;;;;;2.83;0.50;;;;;;;11.67;81.36;97824.84;10244024;28;20438;-59
2024/02/09 03:25:28;;;;;;;7.97;0.60;;;;;;;11.59;81.63;97811.78;10258535;28;20101;-60
2024/02/09 03:30:30;;;;;;;3.58;1.17;;;;;;;11.62;81.42;97813.97;10265864;28;20051;-60
2024/02/09 03:35:31;;;;;;;5.68;1.00;;;;;;;11.66;81.70;97820.50;10261455;28;20050;-61
2024/02/09 03:40:33;;;;;;;7.03;1.38;;;;;;;11.67;81.23;97811.38;10261464;28;20537;-59
2024/02/09 03:45:35;;;;;;;3.85;0.70;;;;;;;11.72;81.06;97807.94;10260801;28;20062;-59
2024/02/09 03:50:36;;;;;;;3.70;1.15;;;;;;;11.71;80.88;97807.13;10258025;28;20053;-60
2024/02/09 03:55:41;;;;;;;3.63;0.70;;;;;;;11.75;80.98;97814.69;10262145;28;20134;-60
2024/02/09 04:00:44;;;;;;;2.55;0.40;;;;;;;11.75;80.70;97820.06;10265129;28;20070;-60
2024/02/09 04:05:45;;;;;;;1.88;0.50;;;;;;;11.78;81.11;97822.28;10269202;28;20047;-59
2024/02/09 04:10:47;;;;;;;2.72;0.40;;;;;;;11.78;81.38;97816.91;10264467;28;20426;-59
2024/02/09 04:15:48;;;;;;;3.08;1.13;;;;;;;11.82;81.20;97807.28;10268032;28;20051;-60
2024/02/09 04:20:50;;;;;;;6.57;1.50;;;;;;;11.81;81.07;97800.25;10265749;28;20134;-59
2024/02/09 04:25:52;;;;;;;1.55;0.40;;;;;;;11.80;80.94;97806.72;10268756;28;20051;-59
2024/02/09 04:30:53;;;;;;;4.60;0.40;;;;;;;11.80;80.77;97804.81;10269819;28;20143;-59
2024/02/09 04:35:56;;;;;;;1.88;0.60;;;;;;;11.89;80.80;97797.19;10263852;28;20059;-59
2024/02/09 04:40:59;;;;;;;2.65;0.70;;;;;;;11.83;80.46;97790.88;10265637;28;20142;-59
2024/02/09 04:46:00;;;;;;;5.28;1.30;;;;;;;11.84;81.12;97791.69;10266510;28;20986;-58
2024/02/09 04:51:06;;;;;;;1.75;0.77;;;;;;;11.81;81.01;97789.47;10262718;28;20143;-58
2024/02/09 04:56:09;;;;;;;8.15;1.10;;;;;;;11.81;80.82;97794.88;10262850;28;20051;-59
2024/02/09 05:01:11;;;;;;;4.35;1.33;;;;;;;11.77;81.13;97782.97;10264077;28;20151;-59
2024/02/09 05:06:12;;;;;;;4.15;1.40;;;;;;;11.73;81.32;97790.75;10267684;28;20055;-59
2024/02/09 05:11:14;;;;;;;9.23;1.52;;;;;;;11.72;81.49;97789.09;10261874;28;20058;-59
2024/02/09 05:16:17;;;;;;;8.32;1.90;;;;;;;11.76;81.04;97775.97;10268707;28;20451;-59
2024/02/09 05:21:18;;;;;;;8.25;2.50;;;;;;;11.69;81.50;97766.19;10265500;28;20055;-59
2024/02/09 05:26:20;;;;;;;2.78;1.73;;;;;;;11.75;81.08;97759.00;10252085;28;20530;-59
2024/02/09 05:31:28;;;;;;;3.17;1.55;;;;;;;11.78;81.25;97765.78;10270433;28;20082;-60
2024/02/09 05:36:32;;;;;;;3.15;1.30;;;;;;;11.78;81.10;97757.69;10269756;28;20808;-59
2024/02/09 05:41:34;;;;;;;5.32;2.15;;;;;;;11.78;80.84;97761.19;10265032;28;20510;-59
2024/02/09 05:46:35;;;;;;;5.82;1.40;;;;;;;11.80;80.89;97760.94;10261240;28;20571;-59
2024/02/09 05:51:37;;;;;;;2.70;0.70;;;;;;;11.77;81.37;97767.66;10263264;28;20145;-60
2024/02/09 05:56:39;;;;;;;4.38;1.48;;;;;;;11.77;80.88;97769.50;10264483;28;20502;-63
2024/02/09 06:01:41;;;;;;;3.47;1.23;;;;;;;11.76;81.19;97771.41;10274237;28;20053;-63
2024/02/09 06:06:44;;;;;;;3.90;1.50;;;;;;;11.81;81.08;97758.03;10259329;28;20087;-63
2024/02/09 06:11:45;;;;;;;3.55;1.20;;;;;;;11.82;81.03;97758.81;10247475;28;20050;-63
2024/02/09 06:16:47;;;;;;;7.03;1.90;;;;;;;11.80;81.44;97769.03;10265644;28;20506;-64
2024/02/09 06:21:49;;;;;;;6.85;2.58;;;;;;;11.81;81.40;97767.94;10264920;28;20054;-63
2024/02/09 06:26:51;;;;;;;7.35;3.15;;;;;;;11.83;81.31;97763.97;10264098;28;20150;-64
2024/02/09 06:31:56;;;;;;;15.63;4.45;;;;;;;11.85;81.55;97766.41;10269682;28;20138;-63
2024/02/09 06:36:59;;;;;;;6.57;2.83;;;;;;;11.76;81.43;97776.78;10266013;28;20050;-63
2024/02/09 06:42:00;;;;;;;6.63;3.38;;;;;;;11.74;81.95;97781.59;10267020;28;20071;-64
2024/02/09 06:47:02;;;;;;;10.85;4.80;;;;;;;11.73;81.95;97785.38;10262590;28;20070;-69
2024/02/09 06:52:04;;;;;;;7.63;4.10;;;;;;;11.85;81.55;97769.13;10266660;28;20047;-70
2024/02/09 06:57:06;;;;;;;12.32;5.13;;;;;;;11.94;81.26;97780.28;10263426;28;20052;-69
2024/02/09 07:02:10;;;;;;;9.93;4.90;;;;;;;11.96;81.21;97770.88;10262708;28;20058;-67
2024/02/09 07:07:11;;;;;;;12.23;5.68;;;;;;;11.97;81.43;97761.75;10283558;28;20051;-61
2024/02/09 07:12:13;;;;;;;14.77;5.65;;;;;;;12.02;81.39;97777.97;10309969;28;20574;-62
2024/02/09 07:17:17;;;;;;;9.73;5.10;;;;;;;12.06;80.85;97772.91;10301956;28;20295;-62
2024/02/09 07:22:18;;;;;;;12.27;4.53;;;;;;;12.13;80.84;97775.44;10292100;28;20776;-64
2024/02/09 07:27:20;;;;;;;13.60;5.70;;;;;;;12.16;80.75;97769.53;10243728;28;20051;-64
2024/02/09 07:32:23;;;;;;;12.35;4.60;;;;;;;12.19;80.92;97780.63;10247224;28;20517;-64
2024/02/09 07:37:26;;;;;;;8.35;4.93;;;;;;;12.17;80.86;97796.22;10292506;28;20317;-62
2024/02/09 07:42:27;;;;;;;11.50;5.18;;;;;;;12.21;80.67;97800.03;10269763;28;20090;-63
2024/02/09 07:47:29;;;;;;;13.55;5.05;;;;;;;12.24;80.86;97794.16;10262448;28;20512;-64
2024/02/09 07:52:32;;;;;;;10.52;5.10;;;;;;;12.26;80.68;97804.66;10247769;28;20054;-64
2024/02/09 07:57:34;;;;;;;14.43;4.57;;;;;;;12.36;80.58;97796.75;10261878;28;20271;-65
2024/02/09 08:02:35;;;;;;;13.88;5.07;;;;;;;12.32;80.77;97806.34;10260542;28;20051;-64
2024/02/09 08:07:37;;;;;;;13.68;5.32;;;;;;;12.40;80.44;97807.81;10251972;28;20047;-67
2024/02/09 08:12:40;;;;;;;10.68;4.45;;;;;;;12.46;80.22;97791.47;10264454;28;20054;-66
2024/02/09 08:17:52;;;;;;;21.35;5.63;;;;;;;12.54;80.21;97792.06;10258477;28;20059;-59
2024/02/09 08:22:54;;;;;;;13.98;4.75;;;;;;;12.59;80.27;97806.41;10258868;28;20110;-60
2024/02/09 08:27:56;;;;;;;12.85;4.97;;;;;;;12.59;80.49;97794.84;10260592;28;20145;-59
2024/02/09 08:32:57;;;;;;;15.02;4.25;;;;;;;12.58;80.50;97804.81;10249814;28;20138;-60
2024/02/09 08:37:59;;;;;;;9.65;3.60;;;;;;;12.63;80.53;97801.34;10254719;28;20051;-62
2024/02/09 08:43:00;;;;;;;10.05;3.40;;;;;;;12.67;80.28;97794.38;10243032;28;20059;-59
2024/02/09 08:48:02;;;;;;;9.02;2.85;;;;;;;12.65;80.40;97789.25;10266789;28;20051;-62
2024/02/09 08:53:04;;;;;;;10.60;3.28;;;;;;;12.74;80.47;97786.91;10271294;28;20063;-62
2024/02/09 08:58:07;;;;;;;9.23;3.63;;;;;;;12.89;80.08;97778.16;10269224;28;20050;-63
2024/02/09 09:03:10;;;;;;;7.07;2.45;;;;;;;13.10;80.04;97771.09;10264916;28;20186;-62
2024/02/09 09:08:13;;;;;;;6.75;3.47;;;;;;;13.27;79.88;97774.47;10264276;28;20065;-65
2024/02/09 09:13:15;;;;;;;9.45;2.70;;;;;;;13.40;79.64;97775.16;10274557;28;20142;-65
2024/02/09 09:18:17;;;;;;;13.32;2.58;;;;;;;13.48;79.46;97769.25;10271490;28;20050;-65
2024/02/09 09:23:19;;;;;;;11.45;3.38;;;;;;;13.64;79.39;97775.59;10274659;28;20055;-66
2024/02/09 09:28:21;;;;;;;9.05;2.22;;;;;;;13.77;79.11;97775.13;10275746;28;20051;-65
2024/02/09 09:33:23;;;;;;;9.07;2.15;;;;;;;13.89;78.74;97775.75;10273468;28;20077;-64
2024/02/09 09:38:26;;;;;;;12.60;1.90;;;;;;;13.94;78.56;97768.75;10272177;28;20062;-64
2024/02/09 09:43:28;;;;;;;6.20;2.13;;;;;;;13.97;78.56;97774.44;10270127;28;20059;-65
2024/02/09 09:48:29;;;;;;;10.18;2.50;;;;;;;14.07;78.41;97770.97;10277431;28;20046;-65
2024/02/09 09:53:39;;;;;;;11.85;3.30;;;;;;;14.04;78.15;97769.63;10283985;28;20633;-65
2024/02/09 09:58:41;;;;;;;12.15;3.13;;;;;;;14.27;77.41;97764.84;10285527;28;20055;-64
2024/02/09 10:03:43;;;;;;;6.28;2.45;;;;;;;14.25;77.68;97765.13;10270747;28;20067;-65
2024/02/09 10:08:46;;;;;;;10.82;1.98;;;;;;;14.15;77.79;97772.38;10284029;28;20596;-65
2024/02/09 10:13:52;;;;;;;4.75;1.67;;;;;;;14.13;77.58;97771.81;10283713;28;20054;-66
2024/02/09 10:18:54;;;;;;;8.20;2.60;;;;;;;14.17;77.57;97767.53;10283001;28;20070;-63
2024/02/09 10:23:55;;;;;;;5.53;1.55;;;;;;;14.19;77.39;97757.25;10296000;28;20108;-66
2024/02/09 10:28:58;;;;;;;8.68;1.65;;;;;;;14.17;77.25;97764.81;10300421;28;20058;-64
2024/02/09 10:33:59;;;;;;;7.57;1.65;;;;;;;14.24;77.08;97758.09;10298357;28;20115;-65
2024/02/09 10:39:01;;;;;;;5.88;1.00;;;;;;;14.37;76.74;97764.09;10258808;28;20093;-65
2024/02/09 10:44:04;;;;;;;7.43;1.70;;;;;;;14.49;76.43;97756.56;10258166;28;20057;-65
2024/02/09 10:49:09;;;;;;;5.18;1.33;;;;;;;14.62;76.06;97756.09;10265679;28;20074;-66
2024/02/09 10:54:30;;;;;;;6.97;1.92;;;;;;;14.63;75.96;97749.63;10264112;28;20043;-64
2024/02/09 10:59:37;;;;;;;5.53;2.25;;;;;;;14.73;75.95;97742.59;10260369;28;20061;-64
2024/02/09 11:04:39;;;;;;;2.83;1.00;;;;;;;14.87;75.56;97735.59;10264122;28;20146;-65
2024/02/09 11:09:43;;;;;;;7.88;2.05;;;;;;;15.25;74.63;97736.97;10260798;28;20046;-64
2024/02/09 11:14:45;;;;;;;5.15;0.98;;;;;;;15.54;74.17;97731.00;10268859;28;20054;-62
2024/02/09 11:19:48;;;;;;;3.65;1.33;;;;;;;16.03;73.57;97724.13;10270861;28;20046;-63
2024/02/09 11:24:50;;;;;;;4.30;1.27;;;;;;;15.85;73.50;97723.63;10267199;28;20039;-64
2024/02/09 11:29:52;;;;;;;9.95;2.55;;;;;;;15.75;73.86;97722.84;10270798;28;20051;-63
2024/02/09 11:34:55;;;;;;;7.43;1.67;;;;;;;15.81;72.76;97698.19;10273277;28;20185;-64
2024/02/09 11:39:58;;;;;;;9.93;1.67;;;;;;;15.93;72.69;97697.88;10272771;28;20134;-64
2024/02/09 11:44:59;;;;;;;5.10;1.15;;;;;;;15.94;72.47;97699.50;10269673;28;20145;-63
2024/02/09 11:50:00;;;;;;;7.75;1.10;;;;;;;15.87;72.22;97693.56;10257367;28;20054;-63
2024/02/09 11:55:03;;;;;;;5.22;1.23;;;;;;;15.90;72.18;97690.31;10262425;28;20054;-63
2024/02/09 12:00:07;;;;;;;13.52;1.95;;;;;;;15.81;71.71;97684.63;10270736;28;20085;-62
2024/02/09 12:05:09;;;;;;;7.28;1.05;;;;;;;15.78;71.46;97678.97;10260424;28;20042;-62
2024/02/09 12:10:10;;;;;;;6.95;0.90;;;;;;;15.86;71.48;97681.13;10275901;28;20548;-63
2024/02/09 12:15:12;;;;;;;6.00;1.20;;;;;;;16.09;70.54;97668.81;10276820;28;20047;-64
2024/02/09 12:20:14;;;;;;;8.80;1.23;;;;;;;16.33;70.21;97657.31;10277559;28;20101;-63
2024/02/09 12:25:16;;;;;;;8.15;1.13;;;;;;;16.39;69.83;97657.00;10274433;28;20472;-65
2024/02/09 12:30:20;;;;;;;6.13;1.10;;;;;;;16.38;69.67;97662.72;10294303;28;20120;-65
2024/02/09 12:35:28;;;;;;;4.85;0.93;;;;;;;16.26;69.41;97655.72;10276948;28;20138;-63
2024/02/09 12:40:30;;;;;;;4.40;0.93;;;;;;;16.07;69.80;97649.31;10278170;28;20055;-65
2024/02/09 12:45:31;;;;;;;5.82;2.05;;;;;;;16.04;69.19;97650.69;10270833;28;20058;-66
2024/02/09 12:50:34;;;;;;;4.55;0.88;;;;;;;15.91;69.47;97670.25;10271446;28;20458;-65
2024/02/09 12:55:35;;;;;;;7.28;1.45;;;;;;;15.76;69.63;97676.53;10266909;28;20062;-65
2024/02/09 13:00:37;;;;;;;8.73;1.10;;;;;;;15.41;70.53;97689.03;10280862;28;20047;-65
2024/02/09 13:05:39;;;;;;;5.63;1.00;;;;;;;15.14;70.91;97662.28;10273622;28;20059;-65
2024/02/09 13:10:41;;;;;;;4.75;1.17;;;;;;;14.95;71.58;97661.19;10273759;28;20170;-65
2024/02/09 13:15:43;;;;;;;5.35;1.40;;;;;;;15.00;71.56;97667.41;10275271;28;20063;-65
2024/02/09 13:20:48;;;;;;;5.32;1.00;;;;;;;15.36;71.04;97653.84;10278749;28;20506;-65
2024/02/09 13:25:51;;;;;;;2.90;1.13;;;;;;;15.64;70.30;97655.16;10279784;28;20420;-66
2024/02/09 13:30:52;;;;;;;4.75;1.27;;;;;;;15.79;70.50;97664.34;10273168;28;20444;-66
2024/02/09 13:35:54;;;;;;;4.35;1.30;;;;;;;16.00;69.97;97662.38;10274764;28;20114;-66
2024/02/09 13:40:56;;;;;;;7.28;0.93;;;;;;;16.12;69.87;97651.19;10282484;28;20062;-64
2024/02/09 13:45:57;;;;;;;9.32;1.70;;;;;;;16.26;69.62;97654.91;10285390;28;20043;-65
2024/02/09 13:50:59;;;;;;;4.47;1.27;;;;;;;16.31;69.58;97657.59;10299657;28;20058;-65
2024/02/09 13:56:01;;;;;;;4.25;1.05;;;;;;;16.00;70.09;97670.50;10282865;28;20066;-65
2024/02/09 14:01:02;;;;;;;5.88;1.38;;;;;;;15.81;70.29;97662.16;10304360;28;20071;-65
2024/02/09 14:06:04;;;;;;;6.53;1.35;;;;;;;15.70;70.45;97669.50;10293140;28;20641;-65
2024/02/09 14:11:05;;;;;;;6.88;1.10;;;;;;;15.72;70.12;97664.59;10298899;28;20056;-66
2024/02/09 14:16:07;;;;;;;6.55;1.80;;;;;;;15.64;69.99;97647.03;10272205;28;20505;-65
2024/02/09 14:21:09;;;;;;;5.45;1.10;;;;;;;15.59;70.15;97643.53;10269237;28;20134;-65
2024/02/09 14:26:12;;;;;;;3.60;1.58;;;;;;;15.46;70.73;97655.72;10276141;28;20051;-65
2024/02/09 14:31:14;;;;;;;7.22;1.42;;;;;;;15.49;70.75;97647.06;10276678;28;20045;-65
2024/02/09 14:36:16;;;;;;;3.25;1.30;;;;;;;15.45;70.66;97646.78;10265982;28;20382;-65
2024/02/09 14:41:18;;;;;;;8.38;2.35;;;;;;;15.41;70.65;97648.44;10277226;28;20146;-66
2024/02/09 14:46:20;;;;;;;3.33;1.65;;;;;;;15.36;70.86;97639.50;10261655;28;20055;-66
2024/02/09 14:51:22;;;;;;;7.93;1.70;;;;;;;15.39;70.86;97642.47;10285318;28;20050;-65
2024/02/09 14:56:24;;;;;;;6.30;1.30;;;;;;;15.45;70.69;97635.16;10270896;28;20051;-65
2024/02/09 15:01:25;;;;;;;12.63;2.72;;;;;;;15.49;70.97;97624.59;10282749;28;20051;-65
2024/02/09 15:06:28;;;;;;;4.13;2.00;;;;;;;15.55;70.61;97627.00;10281007;28;20062;-66
2024/02/09 15:11:31;;;;;;;5.82;1.67;;;;;;;15.58;70.60;97636.47;10260086;28;20477;-66
2024/02/09 15:16:34;;;;;;;6.18;1.40;;;;;;;15.53;70.31;97623.78;10274305;28;20078;-65
2024/02/09 15:21:35;;;;;;;3.80;1.10;;;;;;;15.54;70.36;97622.69;10305904;28;20055;-64
2024/02/09 15:26:40;;;;;;;5.97;1.15;;;;;;;15.43;70.68;97630.03;10293613;28;20055;-64
2024/02/09 15:31:44;;;;;;;7.38;2.60;;;;;;;15.49;70.31;97627.31;10297403;28;20059;-66
2024/02/09 15:36:45;;;;;;;11.60;2.08;;;;;;;15.50;70.42;97635.16;10279816;28;20061;-65
2024/02/09 15:41:47;;;;;;;5.15;1.15;;;;;;;15.42;70.33;97639.25;10289786;28;20050;-65
2024/02/09 15:46:49;;;;;;;8.13;0.80;;;;;;;15.33;70.57;97635.47;10299724;28;20054;-65
2024/02/09 15:51:54;;;;;;;5.30;1.00;;;;;;;15.24;70.48;97639.81;10302900;28;20066;-65
2024/02/09 15:56:56;;;;;;;6.88;1.17;;;;;;;15.22;70.55;97631.94;10288269;28;20059;-66
2024/02/09 16:01:57;;;;;;;7.13;1.50;;;;;;;15.14;70.13;97646.03;10272212;28;20059;-65
2024/02/09 16:06:59;;;;;;;4.47;1.20;;;;;;;15.20;70.09;97642.25;10262736;28;20134;-65
2024/02/09 16:12:01;;;;;;;4.35;1.50;;;;;;;15.27;69.69;97634.66;10301501;28;20090;-66
2024/02/09 16:17:04;;;;;;;9.10;1.60;;;;;;;15.35;69.49;97632.50;10285972;28;20055;-67
2024/02/09 16:22:06;;;;;;;2.40;1.00;;;;;;;15.40;69.19;97624.34;10275970;28;20062;-72
2024/02/09 16:27:07;;;;;;;6.75;1.55;;;;;;;15.29;69.58;97628.19;10271122;28;20531;-69
2024/02/09 16:32:09;;;;;;;5.35;1.17;;;;;;;15.29;69.66;97622.75;10275545;28;20058;-71
2024/02/09 16:42:28;;;;;;;5.70;1.67;;;;;;;15.38;69.31;97626.50;10655030;23;20142;-92
2024/02/09 16:47:32;;;;;;;5.20;1.60;;;;;;;15.38;69.05;97632.75;10333198;28;20066;-92
2024/02/09 16:52:33;;;;;;;8.60;1.60;;;;;;;15.34;69.26;97631.66;10347087;28;20046;-90
2024/02/09 16:57:38;;;;;;;8.02;1.27;;;;;;;15.31;69.55;97634.13;10368299;28;20088;-90
2024/02/09 17:02:41;;;;;;;6.50;1.98;;;;;;;15.19;69.77;97637.13;10346463;28;20121;-89
2024/02/09 17:07:43;;;;;;;8.60;2.25;;;;;;;15.11;69.84;97634.97;10350600;28;20069;-90
2024/02/09 17:12:48;;;;;;;12.50;3.55;;;;;;;15.12;69.59;97634.69;10342281;28;20049;-91
2024/02/09 17:17:50;;;;;;;12.18;4.40;;;;;;;15.01;70.01;97636.59;10339578;28;20133;-90
2024/02/09 17:22:51;;;;;;;8.20;2.55;;;;;;;14.95;69.76;97636.84;10320894;28;20062;-87
2024/02/09 17:27:53;;;;;;;4.25;1.73;;;;;;;14.86;69.87;97636.59;10308094;28;20077;-86
2024/02/09 17:32:55;;;;;;;4.32;1.40;;;;;;;14.81;69.89;97648.25;10307929;28;20336;-86
2024/02/09 17:37:57;;;;;;;10.07;2.83;;;;;;;14.76;69.97;97653.63;10302759;28;20082;-88
2024/02/09 17:42:59;;;;;;;6.03;3.00;;;;;;;14.72;69.94;97651.75;10327110;28;20081;-88
2024/02/09 17:48:01;;;;;;;8.30;2.13;;;;;;;14.63;70.15;97649.59;10324931;28;20750;-87
2024/02/09 17:53:04;;;;;;;6.60;2.72;;;;;;;14.62;70.55;97661.47;10324287;28;20122;-87
2024/02/09 17:58:06;;;;;;;10.20;2.08;;;;;;;14.51;70.31;97658.97;10327985;28;20070;-87
2024/02/09 18:03:08;;;;;;;7.35;2.33;;;;;;;14.45;70.41;97659.00;10335387;28;20072;-88
2024/02/09 18:08:11;;;;;;;6.78;2.05;;;;;;;14.48;70.26;97658.44;10338411;28;20050;-87
2024/02/09 18:13:13;;;;;;;5.47;1.88;;;;;;;14.51;70.22;97661.69;10330257;28;20058;-88
2024/02/09 18:18:15;;;;;;;8.30;2.75;;;;;;;14.47;70.39;97661.41;10316122;28;20047;-87
2024/02/09 18:23:17;;;;;;;7.80;2.40;;;;;;;14.40;70.51;97663.56;10336094;28;20575;-88
2024/02/09 18:28:21;;;;;;;7.85;1.35;;;;;;;14.37;70.37;97656.78;10304194;23;20391;-62
2024/02/09 18:33:23;;;;;;;7.30;1.50;;;;;;;14.37;70.62;97653.28;10277210;28;20436;-60
2024/02/09 18:38:24;;;;;;;4.13;1.10;;;;;;;14.32;70.56;97656.78;10278242;28;20051;-59
2024/02/09 18:43:26;;;;;;;4.93;1.10;;;;;;;14.29;70.60;97660.03;10241844;28;20452;-59
2024/02/09 18:48:27;;;;;;;3.92;1.42;;;;;;;14.24;70.77;97657.31;10230391;28;20103;-60
2024/02/09 18:53:29;;;;;;;6.95;1.60;;;;;;;14.23;70.71;97661.09;10228799;28;20055;-59
2024/02/09 18:58:34;;;;;;;5.60;1.33;;;;;;;14.20;70.83;97661.63;10230130;28;20048;-59
2024/02/09 19:03:36;;;;;;;3.60;1.73;;;;;;;14.04;71.21;97669.69;10228658;28;20098;-58
2024/02/09 19:08:39;;;;;;;6.43;1.38;;;;;;;13.93;71.59;97678.81;10226453;28;20762;-61
2024/02/09 19:13:41;;;;;;;6.40;1.30;;;;;;;13.84;71.86;97669.59;10227460;28;20055;-61
2024/02/09 19:18:42;;;;;;;8.05;2.05;;;;;;;13.72;72.23;97677.09;10222393;28;20074;-59
2024/02/09 19:23:45;;;;;;;7.88;2.00;;;;;;;13.59;72.51;97671.09;10232013;28;20054;-59
2024/02/09 19:28:51;;;;;;;7.60;2.28;;;;;;;13.55;72.51;97670.00;10229884;28;20065;-59
2024/02/09 19:33:53;;;;;;;8.23;2.33;;;;;;;13.43;72.83;97674.78;10227487;28;20351;-59
2024/02/09 19:38:55;;;;;;;4.65;1.67;;;;;;;13.42;73.13;97681.25;10228165;28;20073;-59
2024/02/09 19:43:56;;;;;;;3.90;1.35;;;;;;;13.36;73.32;97680.41;10225705;28;20058;-58
2024/02/09 19:49:03;;;;;;;5.60;2.28;;;;;;;13.34;73.38;97676.34;10227179;28;20543;-59
2024/02/09 19:54:06;;;;;;;3.50;1.65;;;;;;;13.25;73.68;97676.81;10227275;28;20142;-61
2024/02/09 19:59:07;;;;;;;8.23;2.97;;;;;;;13.10;74.44;97685.59;10230327;28;20142;-63
2024/02/09 20:04:09;;;;;;;5.00;2.35;;;;;;;13.01;74.61;97684.47;10232607;28;20055;-63
2024/02/09 20:09:11;;;;;;;10.02;4.60;;;;;;;12.95;74.79;97679.25;10235975;28;20127;-65
2024/02/09 20:14:13;;;;;;;6.75;2.63;;;;;;;12.94;74.99;97685.75;10227783;28;20056;-63
2024/02/09 20:19:16;;;;;;;11.38;4.93;;;;;;;12.89;74.97;97678.41;10237845;28;20047;-63
2024/02/09 20:30:01;;;;;;;10.60;4.95;;;;;;;12.77;75.66;97673.19;2435911;22;20070;-92
2024/02/09 20:35:04;;;;;;;7.03;4.15;;;;;;;12.76;75.91;97684.25;10326750;28;20137;-90
2024/02/09 20:40:07;;;;;;;7.20;3.78;;;;;;;12.71;76.12;97674.22;10326533;28;20039;-90
2024/02/09 20:45:10;;;;;;;8.50;3.42;;;;;;;12.69;76.23;97679.84;10344206;28;20050;-86
2024/02/09 20:50:17;;;;;;;8.60;4.25;;;;;;;12.64;76.78;97685.22;10374110;28;20030;-85
2024/02/09 20:55:19;;;;;;;6.57;3.55;;;;;;;12.61;77.00;97682.22;10391991;23;20062;-63
2024/02/09 21:00:23;;;;;;;7.55;3.40;;;;;;;12.57;76.99;97684.59;10460813;23;20113;-83
2024/02/09 21:05:27;;;;;;;8.13;3.78;;;;;;;12.54;77.30;97681.59;10403438;28;20061;-85
2024/02/09 21:10:30;;;;;;;6.45;3.13;;;;;;;12.42;77.80;97674.50;10390956;28;20416;-85
2024/02/09 21:15:32;;;;;;;4.93;2.60;;;;;;;12.32;77.69;97670.88;10355646;28;20116;-84
2024/02/09 21:20:34;;;;;;;7.68;2.90;;;;;;;12.19;78.27;97672.09;10345671;28;20049;-82
2024/02/09 21:25:39;;;;;;;7.97;3.92;;;;;;;12.16;78.38;97669.88;10343897;28;20540;-82
2024/02/09 21:30:43;;;;;;;6.85;3.05;;;;;;;12.14;78.59;97670.13;10331799;28;20050;-84
2024/02/09 21:35:55;;;;;;;6.95;2.70;;;;;;;12.10;78.62;97663.63;10346703;28;20073;-84
2024/02/09 21:40:57;;;;;;;4.43;2.40;;;;;;;12.08;78.71;97668.44;10327660;28;20054;-84
2024/02/09 21:45:59;;;;;;;4.70;2.70;;;;;;;12.05;78.97;97661.69;10331593;28;20085;-83
2024/02/09 21:51:01;;;;;;;5.93;1.95;;;;;;;12.09;78.86;97667.41;10334419;28;20042;-84
2024/02/09 21:56:03;;;;;;;5.68;1.67;;;;;;;12.05;79.16;97664.41;10350733;28;20077;-84
2024/02/09 22:01:05;;;;;;;7.82;1.98;;;;;;;12.09;78.98;97660.13;10345470;28;20062;-87
2024/02/09 22:06:06;;;;;;;4.10;1.30;;;;;;;12.05;78.83;97658.22;10328485;28;20346;-87
2024/02/09 22:11:10;;;;;;;2.92;1.10;;;;;;;12.05;79.27;97671.66;10330944;28;20498;-88
2024/02/09 22:16:12;;;;;;;4.90;2.03;;;;;;;12.05;79.42;97666.28;10326820;28;20064;-87
2024/02/09 22:21:14;;;;;;;3.25;1.80;;;;;;;12.04;78.90;97673.53;10313021;28;20524;-87
2024/02/09 22:26:18;;;;;;;3.92;0.65;;;;;;;12.04;79.50;97678.09;10328580;28;20034;-87
2024/02/09 22:31:22;;;;;;;4.95;0.73;;;;;;;12.01;79.08;97670.53;10329952;28;20112;-87
2024/02/09 22:36:24;;;;;;;2.15;1.02;;;;;;;11.98;79.18;97677.22;10302715;28;20106;-87
2024/02/09 22:41:26;;;;;;;1.63;0.65;;;;;;;12.04;79.04;97676.22;10321512;28;20046;-87
2024/02/09 22:46:28;;;;;;;4.88;0.93;;;;;;;12.03;79.48;97677.28;10301605;28;20515;-88
2024/02/09 22:51:30;;;;;;;2.67;0.98;;;;;;;11.98;79.20;97676.41;10306754;28;20050;-88
2024/02/09 22:56:32;;;;;;;2.42;1.52;;;;;;;11.92;79.82;97680.13;10328050;28;20164;-87
2024/02/09 23:01:33;;;;;;;3.42;1.55;;;;;;;11.90;79.58;97674.97;10282159;28;20133;-86
2024/02/09 23:06:36;;;;;;;3.08;0.95;;;;;;;11.96;79.56;97689.31;10285218;28;20059;-86
2024/02/09 23:11:38;;;;;;;5.07;0.82;;;;;;;11.78;80.25;97688.53;10289261;28;20070;-82
2024/02/09 23:16:39;;;;;;;2.40;0.80;;;;;;;11.80;79.90;97688.28;10287823;28;20621;-82
2024/02/09 23:21:43;;;;;;;3.90;1.23;;;;;;;11.83;79.85;97687.78;10293476;28;20055;-82
2024/02/09 23:26:47;;;;;;;3.97;0.98;;;;;;;11.80;80.21;97693.66;10293291;28;20134;-82
2024/02/09 23:31:50;;;;;;;3.95;1.27;;;;;;;11.76;80.43;97692.53;10292026;28;20067;-82
2024/02/09 23:36:52;;;;;;;2.38;1.00;;;;;;;11.79;80.21;97700.09;10295921;28;20099;-82
2024/02/09 23:41:54;;;;;;;4.50;0.90;;;;;;;11.81;80.07;97708.75;10280174;28;20043;-82
2024/02/09 23:46:58;;;;;;;4.88;2.10;;;;;;;11.74;80.51;97689.28;10295952;28;20071;-82
2024/02/09 23:52:00;;;;;;;3.88;1.70;;;;;;;11.73;80.53;97693.03;10293439;28;20066;-80
2024/02/09 23:57:02;;;;;;;4.25;2.13;;;;;;;11.78;80.42;97691.22;10291459;28;20059;-86
